sensor_id;sensor_type;location;lat;lon;timestamp;temperature;humidity
9752;DHT22;4915;51.226;5.966;2022-07-18T00:00:08;17.60;87.40
9752;DHT22;4915;51.226;5.966;2022-07-18T00:02:35;17.60;82.50
9752;DHT22;4915;51.226;5.966;2022-07-18T00:05:03;17.60;78.50
9752;DHT22;4915;51.226;5.966;2022-07-18T00:07:31;17.60;81.00
9752;DHT22;4915;51.226;5.966;2022-07-18T00:09:58;17.50;80.20
9752;DHT22;4915;51.226;5.966;2022-07-18T00:12:25;17.50;72.90
9752;DHT22;4915;51.226;5.966;2022-07-18T00:14:52;17.50;67.70
9752;DHT22;4915;51.226;5.966;2022-07-18T00:17:20;17.50;61.20
9752;DHT22;4915;51.226;5.966;2022-07-18T00:19:48;17.50;54.30
9752;DHT22;4915;51.226;5.966;2022-07-18T00:22:15;17.50;51.00
9752;DHT22;4915;51.226;5.966;2022-07-18T00:24:42;17.40;54.20
9752;DHT22;4915;51.226;5.966;2022-07-18T00:27:09;17.40;53.70
9752;DHT22;4915;51.226;5.966;2022-07-18T00:29:36;17.40;56.90
9752;DHT22;4915;51.226;5.966;2022-07-18T00:32:06;17.30;61.90
9752;DHT22;4915;51.226;5.966;2022-07-18T00:34:35;17.10;63.00
9752;DHT22;4915;51.226;5.966;2022-07-18T00:37:03;17.00;74.40
9752;DHT22;4915;51.226;5.966;2022-07-18T00:39:30;17.00;98.20
9752;DHT22;4915;51.226;5.966;2022-07-18T00:41:57;16.80;99.90
9752;DHT22;4915;51.226;5.966;2022-07-18T00:44:26;16.70;99.90
9752;DHT22;4915;51.226;5.966;2022-07-18T00:46:55;16.70;99.90
9752;DHT22;4915;51.226;5.966;2022-07-18T00:49:23;16.60;99.90
9752;DHT22;4915;51.226;5.966;2022-07-18T00:51:51;16.70;99.90
9752;DHT22;4915;51.226;5.966;2022-07-18T00:54:19;16.70;99.90
9752;DHT22;4915;51.226;5.966;2022-07-18T00:56:48;16.70;99.90
9752;DHT22;4915;51.226;5.966;2022-07-18T00:59:16;16.70;99.90
9752;DHT22;4915;51.226;5.966;2022-07-18T01:01:44;16.70;99.90
9752;DHT22;4915;51.226;5.966;2022-07-18T01:04:16;16.60;99.90
9752;DHT22;4915;51.226;5.966;2022-07-18T01:06:45;16.60;99.90
9752;DHT22;4915;51.226;5.966;2022-07-18T01:09:14;16.60;99.90
9752;DHT22;4915;51.226;5.966;2022-07-18T01:11:43;16.50;99.90
9752;DHT22;4915;51.226;5.966;2022-07-18T01:14:10;16.50;99.90
9752;DHT22;4915;51.226;5.966;2022-07-18T01:16:38;16.50;99.90
9752;DHT22;4915;51.226;5.966;2022-07-18T01:19:05;16.60;99.90
9752;DHT22;4915;51.226;5.966;2022-07-18T01:21:33;16.60;99.90
9752;DHT22;4915;51.226;5.966;2022-07-18T01:24:02;16.50;99.90
9752;DHT22;4915;51.226;5.966;2022-07-18T01:26:29;16.50;99.90
9752;DHT22;4915;51.226;5.966;2022-07-18T01:28:57;16.40;99.90
9752;DHT22;4915;51.226;5.966;2022-07-18T01:31:24;16.40;99.90
9752;DHT22;4915;51.226;5.966;2022-07-18T01:33:53;16.40;99.90
9752;DHT22;4915;51.226;5.966;2022-07-18T01:36:20;16.30;99.90
9752;DHT22;4915;51.226;5.966;2022-07-18T01:38:49;16.20;99.90
9752;DHT22;4915;51.226;5.966;2022-07-18T01:41:16;16.10;99.90
9752;DHT22;4915;51.226;5.966;2022-07-18T01:43:43;16.00;99.90
9752;DHT22;4915;51.226;5.966;2022-07-18T01:46:11;15.90;99.90
9752;DHT22;4915;51.226;5.966;2022-07-18T01:48:39;15.90;99.90
9752;DHT22;4915;51.226;5.966;2022-07-18T01:51:06;15.80;99.90
9752;DHT22;4915;51.226;5.966;2022-07-18T01:53:36;15.90;99.90
9752;DHT22;4915;51.226;5.966;2022-07-18T01:56:05;15.90;99.90
9752;DHT22;4915;51.226;5.966;2022-07-18T01:58:32;15.80;99.90
9752;DHT22;4915;51.226;5.966;2022-07-18T02:00:59;15.80;99.90
9752;DHT22;4915;51.226;5.966;2022-07-18T02:03:26;15.70;99.90
9752;DHT22;4915;51.226;5.966;2022-07-18T02:05:53;15.70;99.90
9752;DHT22;4915;51.226;5.966;2022-07-18T02:08:21;15.70;99.90
9752;DHT22;4915;51.226;5.966;2022-07-18T02:10:48;15.60;99.90
9752;DHT22;4915;51.226;5.966;2022-07-18T02:13:17;15.60;99.90
9752;DHT22;4915;51.226;5.966;2022-07-18T02:15:45;15.60;99.90
9752;DHT22;4915;51.226;5.966;2022-07-18T02:18:13;15.60;99.90
9752;DHT22;4915;51.226;5.966;2022-07-18T02:20:40;15.60;99.90
9752;DHT22;4915;51.226;5.966;2022-07-18T02:23:07;15.60;99.90
9752;DHT22;4915;51.226;5.966;2022-07-18T02:25:34;15.60;99.90
9752;DHT22;4915;51.226;5.966;2022-07-18T02:28:01;15.60;99.90
9752;DHT22;4915;51.226;5.966;2022-07-18T02:30:30;15.60;99.90
9752;DHT22;4915;51.226;5.966;2022-07-18T02:32:57;15.60;99.90
9752;DHT22;4915;51.226;5.966;2022-07-18T02:35:25;15.60;99.90
9752;DHT22;4915;51.226;5.966;2022-07-18T02:37:52;15.60;99.90
9752;DHT22;4915;51.226;5.966;2022-07-18T02:40:19;15.50;99.90
9752;DHT22;4915;51.226;5.966;2022-07-18T02:42:46;15.50;99.90
9752;DHT22;4915;51.226;5.966;2022-07-18T02:45:13;15.50;99.90
9752;DHT22;4915;51.226;5.966;2022-07-18T02:47:41;15.50;99.90
9752;DHT22;4915;51.226;5.966;2022-07-18T02:50:09;15.50;99.90
9752;DHT22;4915;51.226;5.966;2022-07-18T02:52:38;15.50;99.90
9752;DHT22;4915;51.226;5.966;2022-07-18T02:55:06;15.40;99.90
9752;DHT22;4915;51.226;5.966;2022-07-18T02:57:33;15.30;99.90
9752;DHT22;4915;51.226;5.966;2022-07-18T03:00:00;15.30;99.90
9752;DHT22;4915;51.226;5.966;2022-07-18T03:02:27;15.20;99.90
9752;DHT22;4915;51.226;5.966;2022-07-18T03:04:56;15.20;99.90
9752;DHT22;4915;51.226;5.966;2022-07-18T03:07:23;15.20;99.90
9752;DHT22;4915;51.226;5.966;2022-07-18T03:09:50;15.10;99.90
9752;DHT22;4915;51.226;5.966;2022-07-18T03:12:17;15.10;99.90
9752;DHT22;4915;51.226;5.966;2022-07-18T03:14:44;15.10;99.90
9752;DHT22;4915;51.226;5.966;2022-07-18T03:17:11;15.10;99.90
9752;DHT22;4915;51.226;5.966;2022-07-18T03:19:38;15.20;99.90
9752;DHT22;4915;51.226;5.966;2022-07-18T03:22:07;15.20;99.90
9752;DHT22;4915;51.226;5.966;2022-07-18T03:24:34;15.20;99.90
9752;DHT22;4915;51.226;5.966;2022-07-18T03:27:01;15.20;99.90
9752;DHT22;4915;51.226;5.966;2022-07-18T03:29:28;15.20;99.90
9752;DHT22;4915;51.226;5.966;2022-07-18T03:31:55;15.30;99.90
9752;DHT22;4915;51.226;5.966;2022-07-18T03:34:22;15.30;99.90
9752;DHT22;4915;51.226;5.966;2022-07-18T03:36:49;15.20;99.90
9752;DHT22;4915;51.226;5.966;2022-07-18T03:39:17;15.20;99.90
9752;DHT22;4915;51.226;5.966;2022-07-18T03:41:45;15.20;99.90
9752;DHT22;4915;51.226;5.966;2022-07-18T03:44:12;15.20;99.90
9752;DHT22;4915;51.226;5.966;2022-07-18T03:46:39;15.10;99.90
9752;DHT22;4915;51.226;5.966;2022-07-18T03:49:06;15.10;99.90
9752;DHT22;4915;51.226;5.966;2022-07-18T03:51:33;15.10;99.90
9752;DHT22;4915;51.226;5.966;2022-07-18T03:54:00;15.10;99.90
9752;DHT22;4915;51.226;5.966;2022-07-18T03:56:28;15.10;99.90
9752;DHT22;4915;51.226;5.966;2022-07-18T03:58:55;15.10;99.90
9752;DHT22;4915;51.226;5.966;2022-07-18T04:01:22;15.10;99.90
9752;DHT22;4915;51.226;5.966;2022-07-18T04:03:49;15.10;99.90
9752;DHT22;4915;51.226;5.966;2022-07-18T04:06:17;15.20;99.90
9752;DHT22;4915;51.226;5.966;2022-07-18T04:08:44;15.20;99.90
9752;DHT22;4915;51.226;5.966;2022-07-18T04:11:11;15.20;99.90
9752;DHT22;4915;51.226;5.966;2022-07-18T04:13:39;15.20;99.90
9752;DHT22;4915;51.226;5.966;2022-07-18T04:16:07;15.20;99.90
9752;DHT22;4915;51.226;5.966;2022-07-18T04:18:34;15.30;99.90
9752;DHT22;4915;51.226;5.966;2022-07-18T04:21:01;15.30;99.90
9752;DHT22;4915;51.226;5.966;2022-07-18T04:23:28;15.30;99.90
9752;DHT22;4915;51.226;5.966;2022-07-18T04:25:55;15.40;99.90
9752;DHT22;4915;51.226;5.966;2022-07-18T04:28:22;15.40;99.90
9752;DHT22;4915;51.226;5.966;2022-07-18T04:30:50;15.40;99.90
9752;DHT22;4915;51.226;5.966;2022-07-18T04:33:17;15.50;99.90
9752;DHT22;4915;51.226;5.966;2022-07-18T04:35:44;15.60;99.90
9752;DHT22;4915;51.226;5.966;2022-07-18T04:38:11;15.60;99.90
9752;DHT22;4915;51.226;5.966;2022-07-18T04:40:39;15.70;99.90
9752;DHT22;4915;51.226;5.966;2022-07-18T04:43:06;15.80;99.90
9752;DHT22;4915;51.226;5.966;2022-07-18T04:45:34;15.90;99.90
9752;DHT22;4915;51.226;5.966;2022-07-18T04:48:03;15.90;99.90
9752;DHT22;4915;51.226;5.966;2022-07-18T04:50:31;16.00;99.90
9752;DHT22;4915;51.226;5.966;2022-07-18T04:52:58;16.10;99.90
9752;DHT22;4915;51.226;5.966;2022-07-18T04:55:27;16.20;99.90
9752;DHT22;4915;51.226;5.966;2022-07-18T04:57:54;16.30;99.90
9752;DHT22;4915;51.226;5.966;2022-07-18T05:00:25;16.40;99.90
9752;DHT22;4915;51.226;5.966;2022-07-18T05:02:54;16.50;99.90
9752;DHT22;4915;51.226;5.966;2022-07-18T05:05:25;16.60;99.90
9752;DHT22;4915;51.226;5.966;2022-07-18T05:07:53;16.60;99.90
9752;DHT22;4915;51.226;5.966;2022-07-18T05:10:21;16.80;99.90
9752;DHT22;4915;51.226;5.966;2022-07-18T05:12:50;17.00;99.90
9752;DHT22;4915;51.226;5.966;2022-07-18T05:15:18;17.20;99.90
9752;DHT22;4915;51.226;5.966;2022-07-18T05:17:46;17.40;99.90
9752;DHT22;4915;51.226;5.966;2022-07-18T05:20:15;17.60;99.90
9752;DHT22;4915;51.226;5.966;2022-07-18T05:22:44;17.80;99.90
9752;DHT22;4915;51.226;5.966;2022-07-18T05:25:11;17.90;99.90
9752;DHT22;4915;51.226;5.966;2022-07-18T05:27:39;18.10;99.90
9752;DHT22;4915;51.226;5.966;2022-07-18T05:30:09;18.50;99.90
9752;DHT22;4915;51.226;5.966;2022-07-18T05:32:36;19.20;99.90
9752;DHT22;4915;51.226;5.966;2022-07-18T05:35:05;19.80;99.90
9752;DHT22;4915;51.226;5.966;2022-07-18T05:37:33;19.90;99.90
9752;DHT22;4915;51.226;5.966;2022-07-18T05:40:03;20.40;99.90
9752;DHT22;4915;51.226;5.966;2022-07-18T05:42:30;20.40;99.90
9752;DHT22;4915;51.226;5.966;2022-07-18T05:44:57;20.20;99.90
9752;DHT22;4915;51.226;5.966;2022-07-18T05:47:24;20.40;99.90
9752;DHT22;4915;51.226;5.966;2022-07-18T05:49:52;21.00;99.90
9752;DHT22;4915;51.226;5.966;2022-07-18T05:52:19;21.50;99.90
9752;DHT22;4915;51.226;5.966;2022-07-18T05:54:46;21.60;99.90
9752;DHT22;4915;51.226;5.966;2022-07-18T05:57:14;22.10;99.90
9752;DHT22;4915;51.226;5.966;2022-07-18T05:59:41;22.30;93.50
9752;DHT22;4915;51.226;5.966;2022-07-18T06:02:08;21.90;74.40
9752;DHT22;4915;51.226;5.966;2022-07-18T06:04:35;21.50;91.30
9752;DHT22;4915;51.226;5.966;2022-07-18T06:07:03;21.70;96.20
9752;DHT22;4915;51.226;5.966;2022-07-18T06:09:30;22.00;99.90
9752;DHT22;4915;51.226;5.966;2022-07-18T06:11:58;22.30;52.90
9752;DHT22;4915;51.226;5.966;2022-07-18T06:14:28;22.60;25.90
9752;DHT22;4915;51.226;5.966;2022-07-18T06:16:55;22.80;15.80
9752;DHT22;4915;51.226;5.966;2022-07-18T06:19:22;22.80;1.00
9752;DHT22;4915;51.226;5.966;2022-07-18T06:21:50;22.90;1.00
9752;DHT22;4915;51.226;5.966;2022-07-18T06:24:17;23.20;1.00
9752;DHT22;4915;51.226;5.966;2022-07-18T06:26:44;23.70;1.00
9752;DHT22;4915;51.226;5.966;2022-07-18T06:29:11;23.90;1.00
9752;DHT22;4915;51.226;5.966;2022-07-18T06:31:40;24.00;1.00
9752;DHT22;4915;51.226;5.966;2022-07-18T06:34:07;23.60;1.00
9752;DHT22;4915;51.226;5.966;2022-07-18T06:36:34;23.50;1.00
9752;DHT22;4915;51.226;5.966;2022-07-18T06:39:01;23.80;1.00
9752;DHT22;4915;51.226;5.966;2022-07-18T06:41:34;24.50;1.00
9752;DHT22;4915;51.226;5.966;2022-07-18T06:44:01;24.90;1.00
9752;DHT22;4915;51.226;5.966;2022-07-18T06:46:28;25.80;1.00
9752;DHT22;4915;51.226;5.966;2022-07-18T06:48:56;25.40;1.00
9752;DHT22;4915;51.226;5.966;2022-07-18T06:51:23;25.60;1.00
9752;DHT22;4915;51.226;5.966;2022-07-18T06:53:51;25.60;1.00
9752;DHT22;4915;51.226;5.966;2022-07-18T06:56:18;25.50;1.00
9752;DHT22;4915;51.226;5.966;2022-07-18T06:58:46;25.80;1.00
9752;DHT22;4915;51.226;5.966;2022-07-18T07:01:14;25.80;1.00
9752;DHT22;4915;51.226;5.966;2022-07-18T07:03:42;26.40;1.00
9752;DHT22;4915;51.226;5.966;2022-07-18T07:06:10;26.70;1.00
9752;DHT22;4915;51.226;5.966;2022-07-18T07:08:38;26.90;1.00
9752;DHT22;4915;51.226;5.966;2022-07-18T07:11:05;27.00;1.00
9752;DHT22;4915;51.226;5.966;2022-07-18T07:13:32;26.80;1.00
9752;DHT22;4915;51.226;5.966;2022-07-18T07:15:59;26.70;1.00
9752;DHT22;4915;51.226;5.966;2022-07-18T07:18:26;26.90;1.00
9752;DHT22;4915;51.226;5.966;2022-07-18T07:20:53;26.80;1.00
9752;DHT22;4915;51.226;5.966;2022-07-18T07:23:22;27.10;1.00
9752;DHT22;4915;51.226;5.966;2022-07-18T07:25:49;27.10;1.00
9752;DHT22;4915;51.226;5.966;2022-07-18T07:28:16;27.20;1.00
9752;DHT22;4915;51.226;5.966;2022-07-18T07:30:44;27.30;1.00
9752;DHT22;4915;51.226;5.966;2022-07-18T07:33:11;27.20;1.00
9752;DHT22;4915;51.226;5.966;2022-07-18T07:35:38;27.20;1.00
9752;DHT22;4915;51.226;5.966;2022-07-18T07:38:05;27.10;1.00
9752;DHT22;4915;51.226;5.966;2022-07-18T07:40:34;27.20;1.00
9752;DHT22;4915;51.226;5.966;2022-07-18T07:43:06;27.90;1.00
9752;DHT22;4915;51.226;5.966;2022-07-18T07:45:33;28.10;1.00
9752;DHT22;4915;51.226;5.966;2022-07-18T07:48:00;28.30;1.00
9752;DHT22;4915;51.226;5.966;2022-07-18T07:50:28;28.20;1.00
9752;DHT22;4915;51.226;5.966;2022-07-18T07:52:55;28.40;1.00
9752;DHT22;4915;51.226;5.966;2022-07-18T07:55:22;28.80;1.00
9752;DHT22;4915;51.226;5.966;2022-07-18T07:57:51;29.10;1.00
9752;DHT22;4915;51.226;5.966;2022-07-18T08:00:18;29.40;1.00
9752;DHT22;4915;51.226;5.966;2022-07-18T08:02:56;29.60;1.00
9752;DHT22;4915;51.226;5.966;2022-07-18T08:05:24;29.30;1.00
9752;DHT22;4915;51.226;5.966;2022-07-18T08:07:52;29.40;1.00
9752;DHT22;4915;51.226;5.966;2022-07-18T08:10:19;29.20;1.00
9752;DHT22;4915;51.226;5.966;2022-07-18T08:12:46;29.10;1.00
9752;DHT22;4915;51.226;5.966;2022-07-18T08:15:15;29.00;1.00
9752;DHT22;4915;51.226;5.966;2022-07-18T08:17:42;30.00;1.00
9752;DHT22;4915;51.226;5.966;2022-07-18T08:20:10;30.10;1.00
9752;DHT22;4915;51.226;5.966;2022-07-18T08:22:51;30.10;1.00
9752;DHT22;4915;51.226;5.966;2022-07-18T08:25:19;30.30;1.00
9752;DHT22;4915;51.226;5.966;2022-07-18T08:27:46;30.30;1.00
9752;DHT22;4915;51.226;5.966;2022-07-18T08:30:15;30.90;1.00
9752;DHT22;4915;51.226;5.966;2022-07-18T08:32:43;30.40;1.00
9752;DHT22;4915;51.226;5.966;2022-07-18T08:35:10;30.50;1.00
9752;DHT22;4915;51.226;5.966;2022-07-18T08:37:37;30.80;1.00
9752;DHT22;4915;51.226;5.966;2022-07-18T08:40:06;30.70;1.00
9752;DHT22;4915;51.226;5.966;2022-07-18T08:42:34;30.60;1.00
9752;DHT22;4915;51.226;5.966;2022-07-18T08:45:02;30.70;1.00
9752;DHT22;4915;51.226;5.966;2022-07-18T08:47:31;30.90;1.00
9752;DHT22;4915;51.226;5.966;2022-07-18T08:49:59;30.60;1.00
9752;DHT22;4915;51.226;5.966;2022-07-18T08:52:28;30.30;1.00
9752;DHT22;4915;51.226;5.966;2022-07-18T08:54:56;30.50;1.00
9752;DHT22;4915;51.226;5.966;2022-07-18T08:57:23;30.50;1.00
9752;DHT22;4915;51.226;5.966;2022-07-18T08:59:50;30.40;1.00
9752;DHT22;4915;51.226;5.966;2022-07-18T09:02:17;30.90;1.00
9752;DHT22;4915;51.226;5.966;2022-07-18T09:04:46;31.50;1.00
9752;DHT22;4915;51.226;5.966;2022-07-18T09:07:24;31.50;1.00
9752;DHT22;4915;51.226;5.966;2022-07-18T09:09:53;31.30;1.00
9752;DHT22;4915;51.226;5.966;2022-07-18T09:12:20;31.50;1.00
9752;DHT22;4915;51.226;5.966;2022-07-18T09:14:48;31.40;1.00
9752;DHT22;4915;51.226;5.966;2022-07-18T09:17:17;31.10;1.00
9752;DHT22;4915;51.226;5.966;2022-07-18T09:19:59;31.50;1.00
9752;DHT22;4915;51.226;5.966;2022-07-18T09:22:28;31.20;1.00
9752;DHT22;4915;51.226;5.966;2022-07-18T09:24:59;31.30;1.00
9752;DHT22;4915;51.226;5.966;2022-07-18T09:27:29;31.90;1.00
9752;DHT22;4915;51.226;5.966;2022-07-18T09:30:19;32.00;1.00
9752;DHT22;4915;51.226;5.966;2022-07-18T09:32:48;31.30;1.00
9752;DHT22;4915;51.226;5.966;2022-07-18T09:35:21;31.90;1.00
9752;DHT22;4915;51.226;5.966;2022-07-18T09:37:58;32.00;1.00
9752;DHT22;4915;51.226;5.966;2022-07-18T09:40:28;31.90;1.00
9752;DHT22;4915;51.226;5.966;2022-07-18T09:42:58;31.70;1.00
9752;DHT22;4915;51.226;5.966;2022-07-18T09:45:28;32.70;1.00
9752;DHT22;4915;51.226;5.966;2022-07-18T09:47:57;32.80;1.00
9752;DHT22;4915;51.226;5.966;2022-07-18T09:50:30;33.00;1.00
9752;DHT22;4915;51.226;5.966;2022-07-18T09:53:14;32.60;1.00
9752;DHT22;4915;51.226;5.966;2022-07-18T09:55:43;32.20;1.00
9752;DHT22;4915;51.226;5.966;2022-07-18T09:58:11;32.10;1.00
9752;DHT22;4915;51.226;5.966;2022-07-18T10:00:38;32.50;1.00
9752;DHT22;4915;51.226;5.966;2022-07-18T10:03:07;32.80;1.00
9752;DHT22;4915;51.226;5.966;2022-07-18T10:05:37;32.80;1.00
9752;DHT22;4915;51.226;5.966;2022-07-18T10:08:07;32.80;1.00
9752;DHT22;4915;51.226;5.966;2022-07-18T10:10:36;32.60;1.00
9752;DHT22;4915;51.226;5.966;2022-07-18T10:13:05;32.50;1.00
9752;DHT22;4915;51.226;5.966;2022-07-18T10:15:34;32.90;1.00
9752;DHT22;4915;51.226;5.966;2022-07-18T10:18:02;33.10;1.00
9752;DHT22;4915;51.226;5.966;2022-07-18T10:20:32;32.80;1.00
9752;DHT22;4915;51.226;5.966;2022-07-18T10:23:10;33.00;1.00
9752;DHT22;4915;51.226;5.966;2022-07-18T10:25:38;32.90;1.00
9752;DHT22;4915;51.226;5.966;2022-07-18T10:28:08;32.90;1.00
9752;DHT22;4915;51.226;5.966;2022-07-18T10:30:44;33.10;1.00
9752;DHT22;4915;51.226;5.966;2022-07-18T10:33:40;33.40;1.00
9752;DHT22;4915;51.226;5.966;2022-07-18T10:36:13;33.80;1.00
9752;DHT22;4915;51.226;5.966;2022-07-18T10:39:06;34.20;1.00
9752;DHT22;4915;51.226;5.966;2022-07-18T10:41:33;34.40;1.00
9752;DHT22;4915;51.226;5.966;2022-07-18T10:44:32;34.20;1.00
9752;DHT22;4915;51.226;5.966;2022-07-18T10:47:08;33.70;1.00
9752;DHT22;4915;51.226;5.966;2022-07-18T10:53:00;33.70;1.00
9752;DHT22;4915;51.226;5.966;2022-07-18T10:55:32;33.60;1.00
9752;DHT22;4915;51.226;5.966;2022-07-18T10:58:21;33.70;1.00
9752;DHT22;4915;51.226;5.966;2022-07-18T11:00:52;33.90;1.00
9752;DHT22;4915;51.226;5.966;2022-07-18T11:03:27;34.10;1.00
9752;DHT22;4915;51.226;5.966;2022-07-18T11:05:56;34.20;1.00
9752;DHT22;4915;51.226;5.966;2022-07-18T11:08:24;34.20;1.00
9752;DHT22;4915;51.226;5.966;2022-07-18T11:11:11;33.70;1.00
9752;DHT22;4915;51.226;5.966;2022-07-18T11:13:44;34.00;1.00
9752;DHT22;4915;51.226;5.966;2022-07-18T11:16:18;34.40;1.00
9752;DHT22;4915;51.226;5.966;2022-07-18T11:19:19;34.40;1.00
9752;DHT22;4915;51.226;5.966;2022-07-18T11:21:55;34.30;1.00
9752;DHT22;4915;51.226;5.966;2022-07-18T11:24:22;34.10;1.00
9752;DHT22;4915;51.226;5.966;2022-07-18T11:26:51;34.30;1.00
9752;DHT22;4915;51.226;5.966;2022-07-18T11:29:19;34.60;1.00
9752;DHT22;4915;51.226;5.966;2022-07-18T11:31:48;34.50;1.00
9752;DHT22;4915;51.226;5.966;2022-07-18T11:34:16;34.10;1.00
9752;DHT22;4915;51.226;5.966;2022-07-18T11:36:45;34.60;1.00
9752;DHT22;4915;51.226;5.966;2022-07-18T11:39:14;34.20;1.00
9752;DHT22;4915;51.226;5.966;2022-07-18T11:41:42;34.50;1.00
9752;DHT22;4915;51.226;5.966;2022-07-18T11:44:18;34.40;1.00
9752;DHT22;4915;51.226;5.966;2022-07-18T11:46:48;34.30;1.00
9752;DHT22;4915;51.226;5.966;2022-07-18T11:49:15;34.50;1.00
9752;DHT22;4915;51.226;5.966;2022-07-18T11:51:44;34.70;1.00
9752;DHT22;4915;51.226;5.966;2022-07-18T11:54:12;34.50;1.00
9752;DHT22;4915;51.226;5.966;2022-07-18T11:56:50;34.70;1.00
9752;DHT22;4915;51.226;5.966;2022-07-18T11:59:20;34.20;1.00
9752;DHT22;4915;51.226;5.966;2022-07-18T12:01:47;34.00;1.00
9752;DHT22;4915;51.226;5.966;2022-07-18T12:04:20;34.50;1.00
9752;DHT22;4915;51.226;5.966;2022-07-18T12:07:12;34.80;1.00
9752;DHT22;4915;51.226;5.966;2022-07-18T12:09:39;35.10;1.00
9752;DHT22;4915;51.226;5.966;2022-07-18T12:12:08;34.80;1.00
9752;DHT22;4915;51.226;5.966;2022-07-18T12:14:37;35.00;1.00
9752;DHT22;4915;51.226;5.966;2022-07-18T12:17:05;35.60;1.00
9752;DHT22;4915;51.226;5.966;2022-07-18T12:19:34;35.20;1.00
9752;DHT22;4915;51.226;5.966;2022-07-18T12:22:06;35.30;1.00
9752;DHT22;4915;51.226;5.966;2022-07-18T12:24:36;34.90;1.00
9752;DHT22;4915;51.226;5.966;2022-07-18T12:27:13;35.30;1.00
9752;DHT22;4915;51.226;5.966;2022-07-18T12:30:05;35.50;1.00
9752;DHT22;4915;51.226;5.966;2022-07-18T12:32:47;35.70;1.00
9752;DHT22;4915;51.226;5.966;2022-07-18T12:35:18;35.60;1.00
9752;DHT22;4915;51.226;5.966;2022-07-18T12:37:56;35.40;1.00
9752;DHT22;4915;51.226;5.966;2022-07-18T12:40:24;35.30;1.00
9752;DHT22;4915;51.226;5.966;2022-07-18T12:43:03;35.70;1.00
9752;DHT22;4915;51.226;5.966;2022-07-18T12:45:33;35.90;1.00
9752;DHT22;4915;51.226;5.966;2022-07-18T12:48:00;35.50;1.00
9752;DHT22;4915;51.226;5.966;2022-07-18T12:50:27;35.20;1.00
9752;DHT22;4915;51.226;5.966;2022-07-18T12:52:54;35.00;1.00
9752;DHT22;4915;51.226;5.966;2022-07-18T12:55:23;35.70;1.00
9752;DHT22;4915;51.226;5.966;2022-07-18T12:57:50;36.00;1.00
9752;DHT22;4915;51.226;5.966;2022-07-18T13:00:17;35.90;1.00
9752;DHT22;4915;51.226;5.966;2022-07-18T13:02:46;36.00;1.00
9752;DHT22;4915;51.226;5.966;2022-07-18T13:05:13;35.80;1.00
9752;DHT22;4915;51.226;5.966;2022-07-18T13:07:40;35.70;1.00
9752;DHT22;4915;51.226;5.966;2022-07-18T13:10:08;35.30;1.00
9752;DHT22;4915;51.226;5.966;2022-07-18T13:12:35;35.50;1.00
9752;DHT22;4915;51.226;5.966;2022-07-18T13:15:03;35.50;1.00
9752;DHT22;4915;51.226;5.966;2022-07-18T13:17:30;35.50;1.00
9752;DHT22;4915;51.226;5.966;2022-07-18T13:19:58;36.00;1.00
9752;DHT22;4915;51.226;5.966;2022-07-18T13:22:25;35.90;1.00
9752;DHT22;4915;51.226;5.966;2022-07-18T13:24:53;36.00;1.00
9752;DHT22;4915;51.226;5.966;2022-07-18T13:27:20;36.00;1.00
9752;DHT22;4915;51.226;5.966;2022-07-18T13:29:48;36.20;1.00
9752;DHT22;4915;51.226;5.966;2022-07-18T13:32:15;35.80;1.00
9752;DHT22;4915;51.226;5.966;2022-07-18T13:34:43;35.40;1.00
9752;DHT22;4915;51.226;5.966;2022-07-18T13:37:11;35.60;1.00
9752;DHT22;4915;51.226;5.966;2022-07-18T13:39:38;35.50;1.00
9752;DHT22;4915;51.226;5.966;2022-07-18T13:42:05;35.80;1.00
9752;DHT22;4915;51.226;5.966;2022-07-18T13:44:32;36.00;1.00
9752;DHT22;4915;51.226;5.966;2022-07-18T13:46:59;35.70;1.00
9752;DHT22;4915;51.226;5.966;2022-07-18T13:49:26;35.80;1.00
9752;DHT22;4915;51.226;5.966;2022-07-18T13:51:53;35.80;1.00
9752;DHT22;4915;51.226;5.966;2022-07-18T13:54:22;35.80;1.00
9752;DHT22;4915;51.226;5.966;2022-07-18T13:56:49;35.30;1.00
9752;DHT22;4915;51.226;5.966;2022-07-18T13:59:16;35.10;1.00
9752;DHT22;4915;51.226;5.966;2022-07-18T14:01:43;35.00;1.00
9752;DHT22;4915;51.226;5.966;2022-07-18T14:04:10;35.20;1.00
9752;DHT22;4915;51.226;5.966;2022-07-18T14:06:37;35.00;1.00
9752;DHT22;4915;51.226;5.966;2022-07-18T14:09:05;35.10;1.00
9752;DHT22;4915;51.226;5.966;2022-07-18T14:11:33;34.90;1.00
9752;DHT22;4915;51.226;5.966;2022-07-18T14:14:01;34.90;1.00
9752;DHT22;4915;51.226;5.966;2022-07-18T14:16:28;34.90;1.00
9752;DHT22;4915;51.226;5.966;2022-07-18T14:18:55;34.50;1.00
9752;DHT22;4915;51.226;5.966;2022-07-18T14:21:23;34.50;1.00
9752;DHT22;4915;51.226;5.966;2022-07-18T14:23:50;34.80;1.00
9752;DHT22;4915;51.226;5.966;2022-07-18T14:26:17;34.80;1.00
9752;DHT22;4915;51.226;5.966;2022-07-18T14:28:46;35.00;1.00
9752;DHT22;4915;51.226;5.966;2022-07-18T14:31:13;34.70;1.00
9752;DHT22;4915;51.226;5.966;2022-07-18T14:33:40;34.40;1.00
9752;DHT22;4915;51.226;5.966;2022-07-18T14:36:07;34.40;1.00
9752;DHT22;4915;51.226;5.966;2022-07-18T14:38:34;34.60;1.00
9752;DHT22;4915;51.226;5.966;2022-07-18T14:41:01;34.50;1.00
9752;DHT22;4915;51.226;5.966;2022-07-18T14:43:28;34.50;1.00
9752;DHT22;4915;51.226;5.966;2022-07-18T14:45:57;34.40;1.00
9752;DHT22;4915;51.226;5.966;2022-07-18T14:48:24;34.50;1.00
9752;DHT22;4915;51.226;5.966;2022-07-18T14:50:51;34.40;1.00
9752;DHT22;4915;51.226;5.966;2022-07-18T14:53:18;34.40;1.00
9752;DHT22;4915;51.226;5.966;2022-07-18T14:55:45;34.30;1.00
9752;DHT22;4915;51.226;5.966;2022-07-18T14:58:12;34.30;1.00
9752;DHT22;4915;51.226;5.966;2022-07-18T15:00:40;34.40;1.00
9752;DHT22;4915;51.226;5.966;2022-07-18T15:03:08;34.50;1.00
9752;DHT22;4915;51.226;5.966;2022-07-18T15:05:35;34.10;1.00
9752;DHT22;4915;51.226;5.966;2022-07-18T15:08:03;34.30;1.00
9752;DHT22;4915;51.226;5.966;2022-07-18T15:10:30;34.40;1.00
9752;DHT22;4915;51.226;5.966;2022-07-18T15:12:57;34.70;1.00
9752;DHT22;4915;51.226;5.966;2022-07-18T15:15:24;34.70;1.00
9752;DHT22;4915;51.226;5.966;2022-07-18T15:17:51;34.30;1.00
9752;DHT22;4915;51.226;5.966;2022-07-18T15:20:20;34.00;1.00
9752;DHT22;4915;51.226;5.966;2022-07-18T15:22:47;34.00;1.00
9752;DHT22;4915;51.226;5.966;2022-07-18T15:25:14;34.10;1.00
9752;DHT22;4915;51.226;5.966;2022-07-18T15:27:41;34.00;1.00
9752;DHT22;4915;51.226;5.966;2022-07-18T15:30:09;34.10;1.00
9752;DHT22;4915;51.226;5.966;2022-07-18T15:32:36;34.10;1.00
9752;DHT22;4915;51.226;5.966;2022-07-18T15:35:05;34.10;1.00
9752;DHT22;4915;51.226;5.966;2022-07-18T15:37:33;34.30;1.00
9752;DHT22;4915;51.226;5.966;2022-07-18T15:40:00;34.30;1.00
9752;DHT22;4915;51.226;5.966;2022-07-18T15:42:27;34.20;1.00
9752;DHT22;4915;51.226;5.966;2022-07-18T15:44:55;34.10;1.00
9752;DHT22;4915;51.226;5.966;2022-07-18T15:47:22;34.10;1.00
9752;DHT22;4915;51.226;5.966;2022-07-18T15:49:49;34.20;1.00
9752;DHT22;4915;51.226;5.966;2022-07-18T15:52:16;34.10;1.00
9752;DHT22;4915;51.226;5.966;2022-07-18T15:54:44;34.20;1.00
9752;DHT22;4915;51.226;5.966;2022-07-18T15:57:11;34.10;1.00
9752;DHT22;4915;51.226;5.966;2022-07-18T15:59:38;34.00;1.00
9752;DHT22;4915;51.226;5.966;2022-07-18T16:02:05;33.90;1.00
9752;DHT22;4915;51.226;5.966;2022-07-18T16:04:32;33.80;1.00
9752;DHT22;4915;51.226;5.966;2022-07-18T16:07:00;33.80;1.00
9752;DHT22;4915;51.226;5.966;2022-07-18T16:09:27;33.80;1.00
9752;DHT22;4915;51.226;5.966;2022-07-18T16:11:55;33.70;1.00
9752;DHT22;4915;51.226;5.966;2022-07-18T16:14:22;33.50;1.00
9752;DHT22;4915;51.226;5.966;2022-07-18T16:16:49;33.60;1.00
9752;DHT22;4915;51.226;5.966;2022-07-18T16:19:16;33.60;1.00
9752;DHT22;4915;51.226;5.966;2022-07-18T16:21:43;33.60;1.00
9752;DHT22;4915;51.226;5.966;2022-07-18T16:24:10;33.50;1.00